Time;durP1;ratioP1;P1;durP2;ratioP2;P2;SDS_P1;SDS_P2;PMS_P1;PMS_P2;Temp;Humidity;BMP_temperature;BMP_pressure;BME280_temperature;BME280_humidity;BME280_pressure;Samples;Min_cycle;Max_cycle;Signal;HPM_P1;HPM_P2
2022/06/28 00:00:48;;;;;;;18.05;4.10;;;;;;;22.26;51.98;101522.13;5009414;28;20405;-56
2022/06/28 00:03:14;;;;;;;13.23;3.42;;;;;;;22.10;52.41;101518.56;4994919;28;20549;-56
2022/06/28 00:05:41;;;;;;;16.58;3.75;;;;;;;22.04;52.37;101514.13;5009570;28;20084;-55
2022/06/28 00:08:07;;;;;;;15.13;4.38;;;;;;;21.86;52.38;101512.66;5011148;28;20502;-56
2022/06/28 00:10:33;;;;;;;9.85;4.10;;;;;;;21.90;53.21;101512.97;5014198;28;20593;-56
2022/06/28 00:12:59;;;;;;;13.02;3.97;;;;;;;21.81;53.31;101509.91;5014342;28;20109;-55
2022/06/28 00:18:10;;;;;;;14.07;4.30;;;;;;;21.63;53.99;101512.28;5012333;28;20120;-57
2022/06/28 00:20:37;;;;;;;9.73;3.38;;;;;;;21.65;53.75;101504.66;5013042;28;20195;-58
2022/06/28 00:23:03;;;;;;;18.98;3.97;;;;;;;21.66;53.72;101507.13;5013943;28;20026;-58
2022/06/28 00:25:29;;;;;;;15.52;4.43;;;;;;;21.45;53.98;101502.66;5012794;28;20026;-58
2022/06/28 00:27:55;;;;;;;9.10;3.80;;;;;;;21.10;54.42;101504.00;5013642;28;20038;-58
2022/06/28 00:30:21;;;;;;;13.68;3.92;;;;;;;21.39;53.88;101501.78;5013325;28;20061;-58
2022/06/28 00:32:48;;;;;;;18.92;3.75;;;;;;;21.26;53.64;101504.91;5001348;28;20453;-56
2022/06/28 00:35:14;;;;;;;16.80;3.78;;;;;;;21.34;54.08;101510.75;5007664;28;20022;-57
2022/06/28 00:37:40;;;;;;;12.27;4.20;;;;;;;21.41;53.60;101509.69;5011154;28;20394;-57
2022/06/28 00:40:07;;;;;;;10.07;3.88;;;;;;;21.39;53.57;101503.69;5014187;28;20038;-62
2022/06/28 00:42:33;;;;;;;13.27;4.32;;;;;;;21.40;54.58;101514.31;5012902;28;20033;-57
2022/06/28 00:45:01;;;;;;;12.35;3.83;;;;;;;21.27;54.66;101507.41;5012440;28;20105;-57
2022/06/28 00:47:27;;;;;;;22.08;5.03;;;;;;;20.95;54.56;101504.69;5028336;28;20095;-59
2022/06/28 00:49:56;;;;;;;9.23;3.72;;;;;;;21.31;54.42;101500.34;5019652;28;20034;-58
2022/06/28 00:52:22;;;;;;;16.05;3.63;;;;;;;21.10;54.31;101509.44;5010400;28;20433;-57
2022/06/28 00:54:49;;;;;;;10.73;3.78;;;;;;;21.01;54.54;101497.38;5014083;28;20030;-58
2022/06/28 00:57:15;;;;;;;10.68;3.47;;;;;;;21.24;53.43;101497.00;5013717;28;20025;-57
2022/06/28 00:59:41;;;;;;;21.40;4.15;;;;;;;21.00;54.68;101498.47;5012527;28;20125;-58
2022/06/28 01:02:07;;;;;;;9.77;3.67;;;;;;;20.96;54.74;101500.06;5018645;28;20077;-58
2022/06/28 01:04:35;;;;;;;11.50;3.60;;;;;;;21.05;55.23;101501.22;5018199;28;20040;-58
2022/06/28 01:07:02;;;;;;;12.32;3.47;;;;;;;21.05;54.55;101490.34;5033378;28;20330;-58
2022/06/28 01:09:28;;;;;;;10.63;3.67;;;;;;;20.99;55.29;101499.56;5020902;28;20065;-58
2022/06/28 01:11:55;;;;;;;9.55;3.40;;;;;;;20.99;55.22;101494.13;5013476;28;20129;-58
2022/06/28 01:14:24;;;;;;;10.38;3.90;;;;;;;21.00;54.31;101491.13;5013624;28;20073;-58
2022/06/28 01:16:51;;;;;;;20.42;4.32;;;;;;;20.70;55.19;101494.38;5013124;28;20109;-58
2022/06/28 01:19:17;;;;;;;14.35;4.20;;;;;;;20.69;55.70;101491.91;5012046;28;20486;-57
2022/06/28 01:21:48;;;;;;;15.45;4.43;;;;;;;20.73;56.01;101488.44;5013438;28;20025;-58
2022/06/28 01:24:14;;;;;;;9.77;3.85;;;;;;;20.82;56.07;101486.91;5013730;28;20030;-58
2022/06/28 01:26:40;;;;;;;14.38;3.78;;;;;;;20.64;55.55;101495.41;5013337;28;20389;-58
2022/06/28 01:29:07;;;;;;;7.90;3.40;;;;;;;20.51;55.69;101490.41;5013501;28;20100;-58
2022/06/28 01:31:33;;;;;;;11.40;3.40;;;;;;;20.79;55.67;101490.13;5013509;28;20445;-58
2022/06/28 01:34:01;;;;;;;8.60;3.78;;;;;;;20.62;55.80;101497.56;5004422;28;20066;-58
2022/06/28 01:36:27;;;;;;;10.68;4.20;;;;;;;20.19;56.21;101488.38;4999941;28;20044;-58
2022/06/28 01:38:54;;;;;;;13.38;3.70;;;;;;;20.34;56.43;101490.47;5017583;28;20021;-58
2022/06/28 01:41:35;;;;;;;12.40;4.03;;;;;;;19.95;57.57;101493.25;5013045;28;20497;-58
2022/06/28 01:44:06;;;;;;;12.82;4.18;;;;;;;20.33;56.73;101498.88;5013013;28;20121;-58
2022/06/28 01:46:37;;;;;;;10.25;3.85;;;;;;;19.69;58.42;101502.97;5012667;28;20026;-58
2022/06/28 01:49:05;;;;;;;12.82;3.80;;;;;;;19.69;57.84;101505.69;5012964;28;20068;-58
2022/06/28 01:51:32;;;;;;;9.25;4.07;;;;;;;19.73;58.64;101501.41;5011739;28;20029;-58
2022/06/28 01:53:58;;;;;;;11.57;3.67;;;;;;;19.84;58.07;101505.06;5012473;28;20121;-58
2022/06/28 01:56:25;;;;;;;9.85;3.70;;;;;;;19.93;57.36;101506.28;5012404;28;20382;-58
2022/06/28 01:58:51;;;;;;;10.07;4.03;;;;;;;20.19;57.43;101501.16;5012302;28;20028;-58
2022/06/28 02:01:17;;;;;;;8.80;3.45;;;;;;;20.39;56.64;101500.56;5012535;28;20108;-58
2022/06/28 02:03:43;;;;;;;12.93;3.60;;;;;;;20.09;56.85;101501.84;5012504;28;20022;-58
2022/06/28 02:06:10;;;;;;;13.50;3.47;;;;;;;20.38;55.70;101501.66;5012388;28;20033;-58
2022/06/28 02:08:36;;;;;;;11.98;3.58;;;;;;;20.47;55.10;101506.38;5011339;28;20039;-58
2022/06/28 02:11:04;;;;;;;14.98;3.45;;;;;;;20.55;54.96;101513.28;5011888;28;20069;-58
2022/06/28 02:13:30;;;;;;;11.23;3.85;;;;;;;20.48;54.88;101496.31;5012039;28;20030;-58
2022/06/28 02:15:57;;;;;;;10.18;3.17;;;;;;;20.60;54.07;101505.19;5012142;28;20105;-57
2022/06/28 02:18:23;;;;;;;12.00;3.38;;;;;;;20.65;53.43;101507.94;5010731;28;20065;-57
2022/06/28 02:20:49;;;;;;;13.38;3.20;;;;;;;20.39;54.12;101508.72;5012435;28;20050;-56
2022/06/28 02:23:15;;;;;;;9.57;3.15;;;;;;;20.71;53.68;101512.38;5011875;28;20382;-57
2022/06/28 02:25:41;;;;;;;14.13;3.80;;;;;;;20.29;55.14;101515.69;5012098;28;20022;-57
2022/06/28 02:28:08;;;;;;;10.73;3.25;;;;;;;20.71;54.21;101517.81;5011310;28;20131;-57
2022/06/28 02:30:34;;;;;;;11.63;3.67;;;;;;;20.35;54.72;101513.03;5012311;28;20116;-57
2022/06/28 02:33:00;;;;;;;9.88;3.53;;;;;;;20.55;54.21;101513.28;5012147;28;20034;-57
2022/06/28 02:40:57;;;;;;;9.80;3.00;;;;;;;20.37;54.57;101519.03;5031984;28;20048;-58
2022/06/28 02:43:23;;;;;;;12.35;3.40;;;;;;;20.65;54.29;101518.81;5031136;28;20078;-57
2022/06/28 02:45:50;;;;;;;11.07;3.50;;;;;;;20.50;54.35;101527.66;5011519;28;20029;-57
2022/06/28 02:48:16;;;;;;;12.77;4.00;;;;;;;20.61;53.64;101522.31;5011842;28;20033;-58
2022/06/28 02:50:42;;;;;;;10.27;3.35;;;;;;;20.61;53.48;101525.03;5011684;28;20540;-57
2022/06/28 02:53:08;;;;;;;12.80;3.28;;;;;;;20.58;53.00;101528.25;5011840;28;20030;-57
2022/06/28 02:55:34;;;;;;;11.95;3.08;;;;;;;20.23;53.82;101530.28;5011438;28;20068;-57
2022/06/28 02:58:01;;;;;;;12.43;3.75;;;;;;;20.08;54.27;101513.78;5011562;28;20371;-57
2022/06/28 03:00:27;;;;;;;16.35;3.50;;;;;;;19.70;55.50;101528.22;5011702;28;20527;-58
2022/06/28 03:02:53;;;;;;;12.10;3.72;;;;;;;19.54;56.26;101532.56;5011569;28;20062;-57
2022/06/28 03:05:21;;;;;;;10.77;3.97;;;;;;;19.28;56.83;101530.56;5011638;28;20079;-57
2022/06/28 03:07:48;;;;;;;12.07;3.67;;;;;;;18.93;57.61;101529.72;5011663;28;20141;-57
2022/06/28 03:10:15;;;;;;;9.73;3.50;;;;;;;18.83;58.27;101537.69;5011660;28;20026;-57
2022/06/28 03:12:41;;;;;;;14.45;4.35;;;;;;;18.54;59.17;101530.56;5011184;28;20057;-57
2022/06/28 03:15:08;;;;;;;15.82;4.05;;;;;;;18.39;59.29;101539.25;5011366;28;20509;-57
2022/06/28 03:17:34;;;;;;;13.52;3.92;;;;;;;18.00;60.56;101544.41;5011608;28;20386;-57
2022/06/28 03:20:00;;;;;;;15.52;4.00;;;;;;;17.66;61.76;101535.25;5011603;28;20064;-57
2022/06/28 03:22:27;;;;;;;10.60;4.40;;;;;;;17.51;62.25;101537.59;5011469;28;20030;-57
2022/06/28 03:24:53;;;;;;;20.73;4.53;;;;;;;17.29;63.12;101540.03;5010153;28;20477;-57
2022/06/28 03:27:19;;;;;;;12.88;4.13;;;;;;;17.21;63.97;101543.06;5007269;28;20096;-57
2022/06/28 03:29:45;;;;;;;15.10;4.07;;;;;;;17.16;64.44;101551.91;4992173;28;20053;-57
2022/06/28 03:32:11;;;;;;;6.32;3.30;;;;;;;17.08;64.30;101549.53;5010330;28;20061;-57
2022/06/28 03:34:38;;;;;;;8.38;3.58;;;;;;;16.97;64.39;101548.44;5010520;28;20038;-58
2022/06/28 03:37:04;;;;;;;11.77;4.05;;;;;;;16.94;64.83;101548.09;5001076;28;20031;-57
2022/06/28 03:39:30;;;;;;;17.48;4.63;;;;;;;16.86;64.82;101536.53;4993397;28;20128;-57
2022/06/28 03:41:56;;;;;;;12.07;3.90;;;;;;;16.60;65.73;101548.53;5007626;28;20022;-57
2022/06/28 03:44:23;;;;;;;11.88;4.25;;;;;;;16.74;65.38;101540.25;5011305;28;20026;-57
2022/06/28 03:46:49;;;;;;;16.63;4.72;;;;;;;16.71;65.11;101552.38;5011107;28;20387;-57
2022/06/28 03:49:15;;;;;;;15.82;4.22;;;;;;;16.66;65.45;101551.34;5009365;28;20026;-57
2022/06/28 03:51:41;;;;;;;10.32;3.72;;;;;;;16.71;65.62;101541.56;5011098;28;20026;-57
2022/06/28 03:54:07;;;;;;;9.73;4.18;;;;;;;16.70;65.76;101545.25;5011147;28;20117;-57
2022/06/28 03:56:34;;;;;;;9.93;3.97;;;;;;;16.58;65.70;101547.91;5009620;28;20077;-57
2022/06/28 03:59:00;;;;;;;10.75;3.80;;;;;;;16.54;66.03;101551.28;5011056;28;20470;-57
2022/06/28 04:01:26;;;;;;;10.43;4.50;;;;;;;16.36;66.37;101557.56;5011292;28;20040;-57
2022/06/28 04:03:52;;;;;;;13.35;5.05;;;;;;;16.36;66.41;101552.16;5013956;28;20018;-57
2022/06/28 04:06:19;;;;;;;12.35;4.55;;;;;;;16.25;66.99;101550.22;5018730;28;20041;-57
2022/06/28 04:08:45;;;;;;;13.35;4.43;;;;;;;16.31;66.85;101562.81;5071040;22;20144;-57
2022/06/28 04:11:14;;;;;;;9.73;4.40;;;;;;;16.23;67.27;101569.34;5074697;28;20054;-59
2022/06/28 04:13:43;;;;;;;11.93;4.55;;;;;;;16.21;67.56;101555.25;5074505;28;20033;-58
2022/06/28 04:16:10;;;;;;;14.85;4.55;;;;;;;16.12;67.89;101561.19;5074122;28;20025;-57
2022/06/28 04:18:36;;;;;;;13.10;4.35;;;;;;;15.90;68.79;101561.63;5073905;28;20362;-57
2022/06/28 04:21:03;;;;;;;15.32;4.35;;;;;;;15.92;68.73;101564.09;5070156;28;20021;-57
2022/06/28 04:23:29;;;;;;;12.35;4.50;;;;;;;15.92;68.83;101562.22;5066580;28;20032;-58
2022/06/28 04:25:56;;;;;;;11.68;4.63;;;;;;;15.80;68.94;101572.09;5072188;28;20025;-58
2022/06/28 04:28:22;;;;;;;13.35;5.03;;;;;;;15.63;69.19;101571.84;5061065;28;20035;-58
2022/06/28 04:30:49;;;;;;;18.40;4.53;;;;;;;15.62;69.10;101572.88;5056806;28;20117;-58
2022/06/28 04:33:15;;;;;;;14.48;4.25;;;;;;;15.47;69.71;101585.84;5074035;28;20043;-57
2022/06/28 04:35:41;;;;;;;16.50;4.50;;;;;;;15.29;70.18;101581.22;5071379;28;20596;-57
2022/06/28 04:38:07;;;;;;;13.25;3.70;;;;;;;15.42;69.80;101583.81;5073613;28;20054;-57
2022/06/28 04:40:34;;;;;;;11.52;3.88;;;;;;;15.40;69.74;101585.91;5071981;28;20123;-57
2022/06/28 04:43:02;;;;;;;10.38;4.97;;;;;;;15.47;69.61;101583.16;5074022;28;20112;-57
2022/06/28 04:45:28;;;;;;;10.55;4.22;;;;;;;15.42;70.03;101594.59;5071666;28;20085;-57
2022/06/28 04:47:54;;;;;;;14.68;4.53;;;;;;;15.37;70.10;101588.22;5072529;28;20024;-57
2022/06/28 04:50:23;;;;;;;8.88;4.32;;;;;;;15.35;70.50;101582.22;5073490;28;20548;-56
2022/06/28 04:52:50;;;;;;;8.77;4.20;;;;;;;15.38;70.34;101587.16;5071940;28;20028;-56
2022/06/28 04:55:19;;;;;;;12.68;4.32;;;;;;;15.28;70.74;101587.69;5073400;28;20024;-56
2022/06/28 04:57:45;;;;;;;14.77;4.05;;;;;;;15.32;70.30;101591.56;5072176;28;20025;-56
2022/06/28 05:00:12;;;;;;;8.63;3.58;;;;;;;15.31;69.85;101589.91;5071450;28;20496;-56
2022/06/28 05:02:39;;;;;;;13.20;4.50;;;;;;;15.25;70.22;101605.09;5053558;28;20525;-57
2022/06/28 05:05:07;;;;;;;14.05;4.65;;;;;;;15.17;70.81;101596.47;5052959;28;20025;-57
2022/06/28 05:07:34;;;;;;;10.13;4.07;;;;;;;15.15;70.96;101599.38;5072359;28;20051;-57
2022/06/28 05:10:01;;;;;;;9.13;4.07;;;;;;;15.13;71.02;101614.13;5073176;28;20103;-57
2022/06/28 05:12:27;;;;;;;14.77;4.28;;;;;;;15.04;71.36;101608.97;5071741;28;20087;-57
2022/06/28 05:14:53;;;;;;;18.25;5.05;;;;;;;14.93;71.70;101614.22;5071121;28;20028;-57
2022/06/28 05:17:19;;;;;;;11.20;4.05;;;;;;;14.99;71.82;101608.81;5072449;28;20066;-57
2022/06/28 05:19:46;;;;;;;13.25;4.70;;;;;;;14.91;72.05;101611.75;5068059;28;20477;-58
2022/06/28 05:22:13;;;;;;;16.02;4.85;;;;;;;14.75;72.51;101613.06;5073146;28;20070;-57
2022/06/28 05:24:39;;;;;;;17.17;4.25;;;;;;;14.71;72.67;101624.50;5072145;28;20077;-57
2022/06/28 05:27:06;;;;;;;10.93;5.18;;;;;;;14.81;72.59;101626.72;5070704;28;20104;-57
2022/06/28 05:29:32;;;;;;;11.43;4.47;;;;;;;14.75;72.66;101626.53;5052679;28;20036;-57
2022/06/28 05:31:59;;;;;;;11.77;3.80;;;;;;;14.76;72.85;101630.06;5060488;28;20028;-57
2022/06/28 05:34:25;;;;;;;19.45;8.50;;;;;;;14.69;72.97;101637.38;5072489;28;20381;-57
2022/06/28 05:36:52;;;;;;;114.28;36.72;;;;;;;14.70;72.64;101628.22;5072120;28;20043;-57
2022/06/28 05:39:18;;;;;;;53.33;19.13;;;;;;;14.60;73.05;101627.84;5072747;28;20028;-57
2022/06/28 05:41:45;;;;;;;22.67;8.85;;;;;;;14.50;73.15;101631.84;5072773;28;20078;-59
2022/06/28 05:44:13;;;;;;;21.60;8.23;;;;;;;14.47;73.68;101626.88;5072683;28;20070;-57
2022/06/28 05:46:39;;;;;;;15.95;5.15;;;;;;;14.44;73.71;101637.22;5072262;28;20036;-58
2022/06/28 05:49:07;;;;;;;11.93;4.63;;;;;;;14.48;73.59;101636.59;5066638;28;20025;-58
2022/06/28 05:51:34;;;;;;;13.57;4.95;;;;;;;14.40;73.72;101627.91;5059749;28;20035;-57
2022/06/28 05:54:01;;;;;;;21.10;7.43;;;;;;;14.09;74.95;101631.28;5072521;28;20117;-57
2022/06/28 05:56:28;;;;;;;9.82;4.68;;;;;;;14.17;74.46;101629.22;5070760;28;20017;-57
2022/06/28 05:58:57;;;;;;;13.57;5.07;;;;;;;14.12;74.77;101630.88;5056356;28;20025;-58
2022/06/28 06:01:25;;;;;;;9.40;4.30;;;;;;;14.05;75.11;101635.44;5058023;28;20082;-58
2022/06/28 06:03:51;;;;;;;12.05;4.00;;;;;;;14.11;74.79;101637.31;5072157;28;20158;-58
2022/06/28 06:06:18;;;;;;;9.13;4.28;;;;;;;14.10;74.91;101641.00;5070710;28;20204;-58
2022/06/28 06:08:45;;;;;;;19.67;4.55;;;;;;;14.05;75.13;101632.72;5072034;28;20036;-58
2022/06/28 06:11:11;;;;;;;9.57;4.88;;;;;;;13.96;75.64;101624.91;5070448;28;20032;-57
2022/06/28 06:13:37;;;;;;;13.65;5.45;;;;;;;13.91;75.70;101632.75;5072033;28;20760;-57
2022/06/28 06:16:04;;;;;;;9.95;4.65;;;;;;;13.74;76.19;101634.22;5061028;28;20031;-57
2022/06/28 06:18:30;;;;;;;11.13;4.97;;;;;;;13.72;76.14;101631.75;5063428;28;20366;-56
2022/06/28 06:20:57;;;;;;;12.98;5.32;;;;;;;13.67;76.52;101636.09;5071660;28;20028;-57
2022/06/28 06:23:23;;;;;;;12.10;4.95;;;;;;;13.50;77.21;101629.47;5070887;28;20111;-57
2022/06/28 06:25:49;;;;;;;10.25;4.95;;;;;;;13.52;77.04;101625.53;5070592;28;20067;-57
2022/06/28 06:28:15;;;;;;;17.00;5.10;;;;;;;13.47;77.19;101628.00;5071833;28;20115;-57
2022/06/28 06:30:42;;;;;;;8.80;4.53;;;;;;;13.50;76.77;101630.31;5070289;28;20059;-57
2022/06/28 06:33:08;;;;;;;13.35;4.85;;;;;;;13.50;76.87;101629.47;5071970;28;20412;-57
2022/06/28 06:35:34;;;;;;;17.63;5.10;;;;;;;13.46;76.90;101627.19;5069066;28;20037;-56
2022/06/28 06:38:00;;;;;;;14.65;5.20;;;;;;;13.47;76.86;101633.38;5053188;28;20444;-57
2022/06/28 06:40:28;;;;;;;18.05;5.70;;;;;;;13.40;77.25;101632.56;5071847;28;20029;-58
2022/06/28 06:42:54;;;;;;;15.10;5.72;;;;;;;13.40;77.61;101619.94;5068894;28;20362;-56
2022/06/28 06:45:20;;;;;;;21.40;6.90;;;;;;;13.53;77.00;101618.28;5071719;28;20135;-56
2022/06/28 06:47:47;;;;;;;29.38;11.85;;;;;;;13.47;77.32;101618.06;5070229;28;20035;-56
2022/06/28 06:50:13;;;;;;;57.97;20.55;;;;;;;13.45;77.59;101627.41;5071771;28;20028;-58
2022/06/28 06:52:39;;;;;;;86.50;29.65;;;;;;;13.51;77.15;101623.06;5070340;28;20040;-58
2022/06/28 06:55:06;;;;;;;26.58;9.73;;;;;;;13.46;77.29;101613.75;5071072;28;20048;-56
2022/06/28 06:57:33;;;;;;;18.25;6.93;;;;;;;13.48;77.50;101630.47;5070372;28;20452;-57
2022/06/28 06:59:59;;;;;;;19.02;5.88;;;;;;;13.48;77.19;101625.09;5071447;28;20488;-56
2022/06/28 07:02:25;;;;;;;18.40;5.93;;;;;;;13.53;77.12;101621.81;5069415;28;20039;-56
2022/06/28 07:04:51;;;;;;;13.00;5.35;;;;;;;13.52;77.11;101613.94;5070867;28;20024;-57
2022/06/28 07:07:18;;;;;;;15.85;5.03;;;;;;;13.46;77.16;101615.59;5069775;28;20116;-56
2022/06/28 07:09:44;;;;;;;14.68;5.70;;;;;;;13.46;77.25;101615.59;5070352;28;20506;-56
2022/06/28 07:12:10;;;;;;;15.40;4.82;;;;;;;13.42;77.08;101620.56;5071271;28;20048;-57
2022/06/28 07:14:36;;;;;;;15.65;5.43;;;;;;;13.45;77.17;101622.03;5069950;28;20068;-58
2022/06/28 07:17:06;;;;;;;17.77;5.75;;;;;;;13.33;77.78;101620.97;5071211;28;20461;-58
2022/06/28 07:19:32;;;;;;;17.73;5.55;;;;;;;13.40;77.55;101635.25;5069875;28;20119;-58
2022/06/28 07:21:58;;;;;;;15.88;5.18;;;;;;;13.25;78.09;101635.44;5071392;28;20408;-58
2022/06/28 07:24:24;;;;;;;13.23;5.00;;;;;;;13.24;78.00;101628.41;5070228;28;20163;-58
2022/06/28 07:26:50;;;;;;;19.80;5.72;;;;;;;13.28;78.11;101632.34;5071118;28;20039;-58
2022/06/28 07:29:17;;;;;;;15.85;5.35;;;;;;;13.22;78.27;101630.47;5069231;28;20036;-56
2022/06/28 07:31:44;;;;;;;20.00;5.40;;;;;;;13.17;78.42;101630.22;5069594;28;20028;-56
2022/06/28 07:34:10;;;;;;;13.65;5.30;;;;;;;13.17;78.52;101620.28;5071245;28;20062;-57
2022/06/28 07:36:37;;;;;;;17.08;5.43;;;;;;;13.24;78.46;101635.63;5069527;28;20465;-58
2022/06/28 07:39:03;;;;;;;13.68;5.43;;;;;;;13.26;78.04;101626.31;5074312;28;20102;-55
2022/06/28 07:41:30;;;;;;;12.77;4.57;;;;;;;13.28;78.29;101621.59;5073810;28;20523;-55
2022/06/28 07:43:56;;;;;;;20.33;5.05;;;;;;;13.25;78.36;101639.97;5074585;28;20109;-55
2022/06/28 07:46:25;;;;;;;13.18;5.95;;;;;;;13.32;77.89;101630.06;5074333;28;20520;-55
2022/06/28 07:48:52;;;;;;;15.75;5.18;;;;;;;13.18;78.49;101632.69;5073234;28;20090;-55
2022/06/28 07:54:04;;;;;;;19.33;5.60;;;;;;;13.17;78.29;101620.28;5074905;28;20123;-55
2022/06/28 07:56:30;;;;;;;16.58;5.05;;;;;;;13.18;78.38;101623.81;5072603;28;20460;-55
2022/06/28 07:58:57;;;;;;;18.27;4.97;;;;;;;13.15;78.41;101619.66;5074518;28;20020;-57
2022/06/28 08:01:23;;;;;;;17.40;5.15;;;;;;;13.09;78.49;101628.53;5071403;28;20044;-58
2022/06/28 08:03:49;;;;;;;15.00;5.65;;;;;;;13.11;78.41;101629.19;5074704;28;20048;-58
2022/06/28 08:06:15;;;;;;;19.20;5.13;;;;;;;13.08;78.60;101623.38;5072700;28;20506;-58
2022/06/28 08:08:42;;;;;;;14.48;5.00;;;;;;;13.00;78.65;101621.72;5074173;28;20103;-57
2022/06/28 08:11:09;;;;;;;12.73;4.60;;;;;;;13.01;78.60;101617.16;5072440;28;20559;-57
2022/06/28 08:13:37;;;;;;;14.75;5.40;;;;;;;12.95;78.89;101611.56;5074286;28;20016;-57
2022/06/28 08:16:04;;;;;;;10.73;4.75;;;;;;;12.98;79.42;101622.94;5071268;28;20070;-57
2022/06/28 08:18:31;;;;;;;17.42;5.13;;;;;;;13.05;78.96;101621.94;5074217;28;20384;-57
2022/06/28 08:20:57;;;;;;;11.85;4.95;;;;;;;12.94;79.44;101617.97;5072684;28;20033;-58
2022/06/28 08:23:23;;;;;;;13.18;5.00;;;;;;;13.04;79.06;101622.13;5074163;28;20031;-58
2022/06/28 08:25:49;;;;;;;16.73;5.00;;;;;;;13.06;78.75;101626.28;5072918;28;20478;-58
2022/06/28 08:28:16;;;;;;;17.58;5.60;;;;;;;12.94;79.36;101622.53;5074022;28;20073;-58
2022/06/28 08:30:43;;;;;;;15.90;5.20;;;;;;;12.99;78.96;101620.03;5070708;28;20085;-58
2022/06/28 08:33:10;;;;;;;15.27;4.68;;;;;;;13.01;78.82;101627.91;5073944;28;20472;-58
2022/06/28 08:35:38;;;;;;;18.80;6.07;;;;;;;13.01;78.69;101630.59;5072283;28;20036;-57
2022/06/28 08:38:05;;;;;;;15.48;4.80;;;;;;;13.02;78.67;101630.38;5072323;28;20028;-58
2022/06/28 08:40:32;;;;;;;12.43;5.28;;;;;;;13.01;78.72;101622.53;5072759;28;20044;-58
2022/06/28 08:43:00;;;;;;;21.50;5.50;;;;;;;13.00;78.54;101639.69;5073586;28;20028;-58
2022/06/28 08:45:27;;;;;;;15.93;5.55;;;;;;;12.90;78.98;101629.31;5071681;28;20472;-57
2022/06/28 08:47:57;;;;;;;11.55;5.10;;;;;;;12.89;78.93;101636.56;5071982;28;20031;-57
2022/06/28 08:50:40;;;;;;;10.73;5.15;;;;;;;12.99;78.64;101619.19;5072144;28;20029;-58
2022/06/28 08:53:10;;;;;;;13.10;4.25;;;;;;;12.96;78.58;101625.81;5073491;28;20058;-57
2022/06/28 08:55:37;;;;;;;11.88;4.57;;;;;;;12.94;78.77;101626.03;5071915;28;20075;-57
2022/06/28 08:58:08;;;;;;;12.18;4.97;;;;;;;12.96;78.78;101628.50;5073511;28;20465;-58
2022/06/28 09:00:35;;;;;;;13.02;4.85;;;;;;;12.97;79.04;101626.66;5071684;28;20789;-57
2022/06/28 09:03:01;;;;;;;15.63;5.13;;;;;;;12.86;79.71;101628.06;5073239;28;20472;-58
2022/06/28 09:05:29;;;;;;;15.23;5.22;;;;;;;12.99;79.40;101624.56;5072020;28;20035;-57
2022/06/28 09:07:56;;;;;;;17.30;5.18;;;;;;;12.93;79.81;101621.66;5052983;28;20855;-57
2022/06/28 09:10:23;;;;;;;14.80;5.35;;;;;;;13.04;79.49;101622.94;5053143;28;20036;-57
2022/06/28 09:12:55;;;;;;;15.27;4.50;;;;;;;13.04;79.32;101616.72;5072114;28;20472;-57
2022/06/28 09:15:25;;;;;;;13.60;4.85;;;;;;;13.09;78.69;101614.28;5071526;28;20037;-57
2022/06/28 09:17:56;;;;;;;11.45;4.85;;;;;;;12.97;79.49;101613.22;5072041;28;20032;-57
2022/06/28 09:20:37;;;;;;;17.45;5.68;;;;;;;13.02;79.28;101618.81;5071571;28;20059;-57
2022/06/28 09:23:03;;;;;;;13.05;5.40;;;;;;;13.07;78.96;101617.16;5073134;28;20055;-58
2022/06/28 09:25:31;;;;;;;10.32;4.50;;;;;;;13.11;78.77;101613.06;5069266;28;20079;-57
2022/06/28 09:28:03;;;;;;;9.80;4.90;;;;;;;13.14;78.71;101615.31;5072981;28;20031;-58
2022/06/28 09:30:31;;;;;;;9.45;4.82;;;;;;;13.10;79.27;101608.72;5069728;28;20040;-57
2022/06/28 09:32:59;;;;;;;13.55;5.10;;;;;;;13.08;79.13;101613.44;5072513;28;20052;-57
2022/06/28 09:35:25;;;;;;;13.15;5.60;;;;;;;13.13;79.23;101615.53;5070725;28;20025;-57
2022/06/28 09:37:52;;;;;;;14.10;5.60;;;;;;;13.11;79.26;101623.81;5071504;28;20054;-57
2022/06/28 09:40:31;;;;;;;15.95;5.43;;;;;;;13.16;79.14;101615.97;5072776;28;20488;-58
2022/06/28 09:43:15;;;;;;;19.35;5.70;;;;;;;13.11;79.61;101621.13;5070303;28;20040;-58
2022/06/28 09:45:50;;;;;;;13.35;5.55;;;;;;;13.14;79.32;101609.94;5072401;28;20028;-57
2022/06/28 09:48:18;;;;;;;17.53;5.20;;;;;;;13.16;79.40;101615.13;5070894;28;20107;-58
2022/06/28 09:50:44;;;;;;;11.30;5.30;;;;;;;13.22;78.82;101610.84;5072426;28;20021;-57
2022/06/28 09:53:15;;;;;;;12.05;4.97;;;;;;;13.10;79.24;101615.91;5071158;28;20054;-58
2022/06/28 09:55:42;;;;;;;16.63;5.55;;;;;;;13.16;78.82;101613.28;5072348;28;20024;-58
2022/06/28 09:58:09;;;;;;;10.25;4.93;;;;;;;13.07;79.11;101616.34;5070370;28;20105;-58
2022/06/28 10:00:39;;;;;;;13.10;4.88;;;;;;;13.22;78.48;101617.03;5069629;28;20174;-57
2022/06/28 10:03:06;;;;;;;12.05;5.15;;;;;;;13.20;78.41;101616.34;5072160;28;20024;-58
2022/06/28 10:05:33;;;;;;;9.93;4.80;;;;;;;13.26;78.15;101620.94;5070416;28;20077;-58
2022/06/28 10:08:00;;;;;;;12.38;4.70;;;;;;;13.30;78.20;101616.81;5070681;28;20041;-57
2022/06/28 10:10:26;;;;;;;10.63;4.97;;;;;;;13.23;78.36;101613.31;5065623;28;20536;-57
2022/06/28 10:15:43;;;;;;;9.95;5.00;;;;;;;13.13;78.55;101616.34;5057672;28;20113;-57
2022/06/28 10:18:14;;;;;;;12.90;4.70;;;;;;;13.08;78.77;101615.31;5070369;28;20040;-57
2022/06/28 10:20:43;;;;;;;10.90;5.05;;;;;;;13.06;79.09;101612.00;5051866;28;20040;-57
2022/06/28 10:23:37;;;;;;;15.55;5.30;;;;;;;13.08;79.16;101607.25;5051453;28;20021;-57
2022/06/28 10:26:07;;;;;;;19.25;4.93;;;;;;;13.08;78.85;101613.44;5051422;28;20055;-57
2022/06/28 10:28:44;;;;;;;20.42;5.97;;;;;;;13.04;79.14;101611.34;5053211;28;20039;-57
2022/06/28 10:31:23;;;;;;;12.40;5.70;;;;;;;13.02;78.96;101616.13;5071699;28;20503;-57
2022/06/28 10:33:54;;;;;;;13.25;5.40;;;;;;;12.95;79.34;101608.88;5070269;28;20115;-58
2022/06/28 10:36:23;;;;;;;10.13;5.07;;;;;;;12.97;79.26;101611.34;5071517;28;20108;-58
2022/06/28 10:39:01;;;;;;;9.10;4.60;;;;;;;12.94;79.46;101611.78;5069892;28;20047;-57
2022/06/28 10:41:49;;;;;;;17.13;5.45;;;;;;;13.02;79.19;101614.25;5071518;28;20032;-57
2022/06/28 10:44:20;;;;;;;14.95;5.85;;;;;;;13.02;79.02;101618.81;5069288;28;20112;-57
2022/06/28 10:47:01;;;;;;;12.50;5.13;;;;;;;12.94;79.08;101617.16;5071642;28;20107;-57
2022/06/28 10:49:56;;;;;;;11.93;5.28;;;;;;;13.05;78.74;101613.88;5070370;28;20642;-57
2022/06/28 10:52:32;;;;;;;16.20;6.33;;;;;;;12.95;79.14;101619.63;5071627;28;20203;-57
2022/06/28 10:54:58;;;;;;;14.35;5.20;;;;;;;12.93;79.32;101618.16;5069651;28;20028;-57
2022/06/28 10:57:26;;;;;;;12.48;5.05;;;;;;;12.90;79.21;101616.72;5070196;28;20032;-58
2022/06/28 10:59:55;;;;;;;13.68;5.25;;;;;;;12.98;78.82;101614.88;5068908;28;20028;-57
2022/06/28 11:02:22;;;;;;;14.90;5.10;;;;;;;13.07;78.16;101616.34;5069913;28;20020;-57
2022/06/28 11:05:09;;;;;;;11.57;4.50;;;;;;;13.09;78.07;101615.09;5071110;28;20469;-59
2022/06/28 11:07:37;;;;;;;14.57;5.55;;;;;;;13.14;77.51;101611.81;5069353;28;20076;-57
2022/06/28 11:10:10;;;;;;;11.35;5.13;;;;;;;13.05;78.01;101608.50;5071150;28;20021;-57
2022/06/28 11:12:41;;;;;;;11.10;4.82;;;;;;;12.95;78.23;101606.19;5072716;28;20082;-58
2022/06/28 11:15:36;;;;;;;9.00;4.40;;;;;;;12.91;78.26;101604.94;5075031;28;20021;-57
2022/06/28 11:18:14;;;;;;;12.90;4.90;;;;;;;13.04;77.84;101604.13;5071444;28;20032;-57
2022/06/28 11:20:41;;;;;;;11.93;5.32;;;;;;;13.11;77.18;101606.84;5074263;28;20041;-57
2022/06/28 11:23:08;;;;;;;15.57;6.32;;;;;;;13.05;77.44;101607.66;5075312;28;20043;-57
2022/06/28 11:28:22;;;;;;;12.00;5.00;;;;;;;13.06;77.12;101614.69;5073729;28;20071;-55
2022/06/28 11:30:49;;;;;;;13.80;4.95;;;;;;;13.02;77.21;101613.44;5056383;28;20056;-55
2022/06/28 11:33:16;;;;;;;13.20;5.05;;;;;;;13.06;76.93;101617.38;5075197;28;20054;-55
2022/06/28 11:35:43;;;;;;;15.18;5.55;;;;;;;13.03;77.21;101613.22;5074277;28;20108;-55